sensor_id;sensor_type;location;lat;lon;timestamp;pressure;altitude;pressure_sealevel;temperature;humidity
74327;BME280;62745;51.060;13.786;2024-01-11T00:00:35;101637.59;;;-6.52;100.00
74327;BME280;62745;51.060;13.786;2024-01-11T00:03:00;101642.03;;;-6.29;98.76
74327;BME280;62745;51.060;13.786;2024-01-11T00:05:26;101638.28;;;-5.95;96.55
74327;BME280;62745;51.060;13.786;2024-01-11T00:07:51;101640.13;;;-5.51;94.50
74327;BME280;62745;51.060;13.786;2024-01-11T00:10:17;101643.03;;;-5.35;93.07
74327;BME280;62745;51.060;13.786;2024-01-11T00:12:42;101643.72;;;-5.78;93.87
74327;BME280;62745;51.060;13.786;2024-01-11T00:15:08;101635.00;;;-6.00;95.71
74327;BME280;62745;51.060;13.786;2024-01-11T00:17:33;101638.34;;;-5.97;95.84
74327;BME280;62745;51.060;13.786;2024-01-11T00:19:58;101636.44;;;-5.68;94.44
74327;BME280;62745;51.060;13.786;2024-01-11T00:22:23;101629.09;;;-5.57;92.94
74327;BME280;62745;51.060;13.786;2024-01-11T00:24:49;101627.88;;;-5.72;94.30
74327;BME280;62745;51.060;13.786;2024-01-11T00:27:14;101634.69;;;-5.21;91.76
74327;BME280;62745;51.060;13.786;2024-01-11T00:29:39;101629.56;;;-5.46;90.77
74327;BME280;62745;51.060;13.786;2024-01-11T00:32:05;101624.91;;;-5.38;91.93
74327;BME280;62745;51.060;13.786;2024-01-11T00:34:30;101622.25;;;-5.60;92.04
74327;BME280;62745;51.060;13.786;2024-01-11T00:36:56;101616.63;;;-5.72;92.84
74327;BME280;62745;51.060;13.786;2024-01-11T00:39:21;101614.97;;;-5.98;93.58
74327;BME280;62745;51.060;13.786;2024-01-11T00:41:46;101611.31;;;-6.18;94.48
74327;BME280;62745;51.060;13.786;2024-01-11T00:44:11;101617.44;;;-6.45;95.76
74327;BME280;62745;51.060;13.786;2024-01-11T00:46:37;101622.69;;;-6.47;96.63
74327;BME280;62745;51.060;13.786;2024-01-11T00:49:03;101615.31;;;-6.60;98.33
74327;BME280;62745;51.060;13.786;2024-01-11T00:51:29;101616.50;;;-6.69;99.28
74327;BME280;62745;51.060;13.786;2024-01-11T00:53:54;101617.53;;;-7.03;100.00
74327;BME280;62745;51.060;13.786;2024-01-11T00:56:19;101613.75;;;-7.20;100.00
74327;BME280;62745;51.060;13.786;2024-01-11T00:58:45;101605.41;;;-7.32;100.00
74327;BME280;62745;51.060;13.786;2024-01-11T01:01:11;101606.72;;;-7.46;100.00
74327;BME280;62745;51.060;13.786;2024-01-11T01:03:37;101610.25;;;-7.49;100.00
74327;BME280;62745;51.060;13.786;2024-01-11T01:06:03;101596.56;;;-7.54;100.00
74327;BME280;62745;51.060;13.786;2024-01-11T01:08:28;101600.13;;;-7.58;100.00
74327;BME280;62745;51.060;13.786;2024-01-11T01:10:53;101585.09;;;-7.47;100.00
74327;BME280;62745;51.060;13.786;2024-01-11T01:13:19;101581.13;;;-7.29;100.00
74327;BME280;62745;51.060;13.786;2024-01-11T01:15:44;101566.78;;;-7.13;100.00
74327;BME280;62745;51.060;13.786;2024-01-11T01:18:10;101574.41;;;-7.36;100.00
74327;BME280;62745;51.060;13.786;2024-01-11T01:20:35;101580.72;;;-7.45;100.00
74327;BME280;62745;51.060;13.786;2024-01-11T01:23:01;101590.53;;;-7.54;100.00
74327;BME280;62745;51.060;13.786;2024-01-11T01:25:26;101596.63;;;-7.55;100.00
74327;BME280;62745;51.060;13.786;2024-01-11T01:27:52;101588.59;;;-7.48;100.00
74327;BME280;62745;51.060;13.786;2024-01-11T01:30:17;101591.06;;;-7.43;100.00
74327;BME280;62745;51.060;13.786;2024-01-11T01:32:42;101599.19;;;-7.26;100.00
74327;BME280;62745;51.060;13.786;2024-01-11T01:35:08;101610.72;;;-7.35;100.00
74327;BME280;62745;51.060;13.786;2024-01-11T01:37:33;101601.28;;;-7.37;100.00
74327;BME280;62745;51.060;13.786;2024-01-11T01:39:58;101604.31;;;-7.52;100.00
74327;BME280;62745;51.060;13.786;2024-01-11T01:42:24;101614.78;;;-6.98;100.00
74327;BME280;62745;51.060;13.786;2024-01-11T01:44:49;101598.38;;;-6.46;100.00
74327;BME280;62745;51.060;13.786;2024-01-11T01:47:15;101594.50;;;-6.85;99.64
74327;BME280;62745;51.060;13.786;2024-01-11T01:49:42;101612.63;;;-6.57;100.00
74327;BME280;62745;51.060;13.786;2024-01-11T01:52:08;101610.38;;;-6.42;97.47
74327;BME280;62745;51.060;13.786;2024-01-11T01:54:33;101603.06;;;-6.57;97.23
74327;BME280;62745;51.060;13.786;2024-01-11T01:56:59;101595.19;;;-6.80;97.78
74327;BME280;62745;51.060;13.786;2024-01-11T01:59:25;101600.72;;;-6.91;99.27
74327;BME280;62745;51.060;13.786;2024-01-11T02:01:51;101601.66;;;-6.93;100.00
74327;BME280;62745;51.060;13.786;2024-01-11T02:04:17;101613.03;;;-6.98;100.00
74327;BME280;62745;51.060;13.786;2024-01-11T02:06:45;101622.66;;;-7.29;100.00
74327;BME280;62745;51.060;13.786;2024-01-11T02:09:12;101625.44;;;-7.07;100.00
74327;BME280;62745;51.060;13.786;2024-01-11T02:11:38;101623.59;;;-7.32;100.00
74327;BME280;62745;51.060;13.786;2024-01-11T02:14:04;101616.88;;;-7.39;100.00
74327;BME280;62745;51.060;13.786;2024-01-11T02:16:30;101603.78;;;-6.78;100.00
74327;BME280;62745;51.060;13.786;2024-01-11T02:18:55;101606.56;;;-6.58;100.00
74327;BME280;62745;51.060;13.786;2024-01-11T02:21:23;101610.72;;;-7.07;99.46
74327;BME280;62745;51.060;13.786;2024-01-11T02:24:04;101607.28;;;-6.79;100.00
74327;BME280;62745;51.060;13.786;2024-01-11T02:26:30;101600.41;;;-6.54;99.10
74327;BME280;62745;51.060;13.786;2024-01-11T02:28:56;101604.94;;;-6.60;98.22
74327;BME280;62745;51.060;13.786;2024-01-11T02:31:21;101611.09;;;-6.37;96.79
74327;BME280;62745;51.060;13.786;2024-01-11T02:33:47;101615.09;;;-6.53;98.28
74327;BME280;62745;51.060;13.786;2024-01-11T02:36:13;101618.84;;;-6.35;96.92
74327;BME280;62745;51.060;13.786;2024-01-11T02:38:39;101623.38;;;-6.42;95.70
74327;BME280;62745;51.060;13.786;2024-01-11T02:41:07;101620.47;;;-6.85;96.99
74327;BME280;62745;51.060;13.786;2024-01-11T02:43:32;101629.00;;;-6.54;97.00
74327;BME280;62745;51.060;13.786;2024-01-11T02:45:59;101628.75;;;-6.74;96.69
74327;BME280;62745;51.060;13.786;2024-01-11T02:48:29;101629.56;;;-6.72;98.43
74327;BME280;62745;51.060;13.786;2024-01-11T02:50:55;101638.53;;;-6.54;97.21
74327;BME280;62745;51.060;13.786;2024-01-11T02:53:20;101642.06;;;-7.13;98.42
74327;BME280;62745;51.060;13.786;2024-01-11T02:55:46;101640.78;;;-6.70;97.53
74327;BME280;62745;51.060;13.786;2024-01-11T02:58:11;101634.91;;;-7.05;99.39
74327;BME280;62745;51.060;13.786;2024-01-11T03:00:36;101635.19;;;-6.86;98.69
74327;BME280;62745;51.060;13.786;2024-01-11T03:03:02;101635.31;;;-7.18;98.46
74327;BME280;62745;51.060;13.786;2024-01-11T03:05:27;101633.47;;;-7.15;100.00
74327;BME280;62745;51.060;13.786;2024-01-11T03:07:53;101638.03;;;-7.52;100.00
74327;BME280;62745;51.060;13.786;2024-01-11T03:10:18;101645.75;;;-7.20;100.00
74327;BME280;62745;51.060;13.786;2024-01-11T03:12:43;101640.00;;;-7.02;100.00
74327;BME280;62745;51.060;13.786;2024-01-11T03:15:09;101654.19;;;-7.13;100.00
74327;BME280;62745;51.060;13.786;2024-01-11T03:17:34;101651.44;;;-7.37;100.00
74327;BME280;62745;51.060;13.786;2024-01-11T03:20:00;101636.38;;;-7.25;99.96
74327;BME280;62745;51.060;13.786;2024-01-11T03:22:25;101635.81;;;-7.35;99.82
74327;BME280;62745;51.060;13.786;2024-01-11T03:24:51;101617.63;;;-7.65;100.00
74327;BME280;62745;51.060;13.786;2024-01-11T03:27:16;101623.19;;;-7.78;100.00
74327;BME280;62745;51.060;13.786;2024-01-11T03:29:41;101613.41;;;-7.69;100.00
74327;BME280;62745;51.060;13.786;2024-01-11T03:32:07;101600.88;;;-7.84;100.00
74327;BME280;62745;51.060;13.786;2024-01-11T03:34:32;101615.94;;;-7.98;100.00
74327;BME280;62745;51.060;13.786;2024-01-11T03:36:57;101613.63;;;-8.09;100.00
74327;BME280;62745;51.060;13.786;2024-01-11T03:39:24;101594.97;;;-7.91;100.00
74327;BME280;62745;51.060;13.786;2024-01-11T03:41:50;101583.28;;;-8.04;100.00
74327;BME280;62745;51.060;13.786;2024-01-11T03:44:15;101573.97;;;-8.12;100.00
74327;BME280;62745;51.060;13.786;2024-01-11T03:46:40;101571.53;;;-8.17;100.00
74327;BME280;62745;51.060;13.786;2024-01-11T03:49:06;101577.75;;;-8.24;100.00
74327;BME280;62745;51.060;13.786;2024-01-11T03:51:32;101565.81;;;-8.30;100.00
74327;BME280;62745;51.060;13.786;2024-01-11T03:53:58;101562.31;;;-8.29;100.00
74327;BME280;62745;51.060;13.786;2024-01-11T03:56:23;101577.78;;;-8.26;100.00
74327;BME280;62745;51.060;13.786;2024-01-11T03:58:48;101578.50;;;-8.19;100.00
74327;BME280;62745;51.060;13.786;2024-01-11T04:01:14;101570.59;;;-7.83;100.00
74327;BME280;62745;51.060;13.786;2024-01-11T04:03:41;101571.31;;;-7.78;100.00
74327;BME280;62745;51.060;13.786;2024-01-11T04:06:06;101575.66;;;-7.79;100.00
74327;BME280;62745;51.060;13.786;2024-01-11T04:08:32;101573.91;;;-7.78;100.00
74327;BME280;62745;51.060;13.786;2024-01-11T04:10:57;101580.28;;;-7.90;100.00
74327;BME280;62745;51.060;13.786;2024-01-11T04:13:22;101570.84;;;-7.93;100.00
74327;BME280;62745;51.060;13.786;2024-01-11T04:15:48;101568.94;;;-7.86;100.00
74327;BME280;62745;51.060;13.786;2024-01-11T04:18:13;101571.88;;;-7.38;100.00
74327;BME280;62745;51.060;13.786;2024-01-11T04:20:38;101570.59;;;-7.83;100.00
74327;BME280;62745;51.060;13.786;2024-01-11T04:23:04;101582.63;;;-7.81;100.00
74327;BME280;62745;51.060;13.786;2024-01-11T04:25:29;101594.38;;;-7.68;100.00
74327;BME280;62745;51.060;13.786;2024-01-11T04:27:55;101595.56;;;-7.79;100.00
74327;BME280;62745;51.060;13.786;2024-01-11T04:30:20;101602.94;;;-7.97;100.00
74327;BME280;62745;51.060;13.786;2024-01-11T04:32:45;101593.13;;;-7.54;100.00
74327;BME280;62745;51.060;13.786;2024-01-11T04:35:11;101596.50;;;-6.67;99.55
74327;BME280;62745;51.060;13.786;2024-01-11T04:37:36;101606.16;;;-6.72;96.81
74327;BME280;62745;51.060;13.786;2024-01-11T04:40:02;101616.00;;;-7.10;97.56
74327;BME280;62745;51.060;13.786;2024-01-11T04:42:28;101622.44;;;-6.93;98.74
74327;BME280;62745;51.060;13.786;2024-01-11T04:44:54;101623.91;;;-6.85;96.33
74327;BME280;62745;51.060;13.786;2024-01-11T04:47:19;101614.41;;;-7.43;99.14
74327;BME280;62745;51.060;13.786;2024-01-11T04:49:45;101625.59;;;-7.71;100.00
74327;BME280;62745;51.060;13.786;2024-01-11T04:52:10;101629.88;;;-7.70;100.00
74327;BME280;62745;51.060;13.786;2024-01-11T04:54:36;101629.41;;;-7.84;100.00
74327;BME280;62745;51.060;13.786;2024-01-11T04:57:01;101635.41;;;-6.93;99.71
74327;BME280;62745;51.060;13.786;2024-01-11T04:59:26;101630.53;;;-7.32;97.42
74327;BME280;62745;51.060;13.786;2024-01-11T05:01:52;101636.19;;;-7.49;98.63
74327;BME280;62745;51.060;13.786;2024-01-11T05:04:17;101635.72;;;-7.63;99.84
74327;BME280;62745;51.060;13.786;2024-01-11T05:06:42;101629.06;;;-7.72;100.00
74327;BME280;62745;51.060;13.786;2024-01-11T05:09:08;101629.13;;;-7.75;100.00
74327;BME280;62745;51.060;13.786;2024-01-11T05:11:33;101621.72;;;-7.58;100.00
74327;BME280;62745;51.060;13.786;2024-01-11T05:13:58;101610.88;;;-7.41;100.00
74327;BME280;62745;51.060;13.786;2024-01-11T05:16:25;101607.00;;;-7.57;100.00
74327;BME280;62745;51.060;13.786;2024-01-11T05:18:52;101602.66;;;-7.57;100.00
74327;BME280;62745;51.060;13.786;2024-01-11T05:21:18;101610.88;;;-7.41;100.00
74327;BME280;62745;51.060;13.786;2024-01-11T05:23:43;101604.34;;;-7.54;100.00
74327;BME280;62745;51.060;13.786;2024-01-11T05:26:09;101605.84;;;-7.76;100.00
74327;BME280;62745;51.060;13.786;2024-01-11T05:28:34;101621.34;;;-7.75;100.00
74327;BME280;62745;51.060;13.786;2024-01-11T05:31:00;101629.41;;;-7.84;100.00
74327;BME280;62745;51.060;13.786;2024-01-11T05:33:25;101623.84;;;-7.41;100.00
74327;BME280;62745;51.060;13.786;2024-01-11T05:35:50;101610.69;;;-7.05;97.89
74327;BME280;62745;51.060;13.786;2024-01-11T05:38:17;101613.06;;;-7.57;99.86
74327;BME280;62745;51.060;13.786;2024-01-11T05:40:42;101605.34;;;-7.60;100.00
74327;BME280;62745;51.060;13.786;2024-01-11T05:43:07;101611.88;;;-7.76;100.00
74327;BME280;62745;51.060;13.786;2024-01-11T05:45:33;101626.94;;;-7.89;100.00
74327;BME280;62745;51.060;13.786;2024-01-11T05:47:59;101627.22;;;-7.99;100.00
74327;BME280;62745;51.060;13.786;2024-01-11T05:50:24;101635.94;;;-8.02;100.00
74327;BME280;62745;51.060;13.786;2024-01-11T05:52:51;101629.22;;;-8.10;100.00
74327;BME280;62745;51.060;13.786;2024-01-11T05:55:17;101638.78;;;-8.12;100.00
74327;BME280;62745;51.060;13.786;2024-01-11T05:57:42;101640.75;;;-8.21;100.00
74327;BME280;62745;51.060;13.786;2024-01-11T06:00:08;101628.22;;;-8.05;100.00
74327;BME280;62745;51.060;13.786;2024-01-11T06:02:33;101646.88;;;-7.60;100.00
74327;BME280;62745;51.060;13.786;2024-01-11T06:05:01;101639.06;;;-6.99;98.94
74327;BME280;62745;51.060;13.786;2024-01-11T06:07:26;101628.53;;;-6.94;95.99
74327;BME280;62745;51.060;13.786;2024-01-11T06:09:53;101638.38;;;-7.04;96.75
74327;BME280;62745;51.060;13.786;2024-01-11T06:12:18;101633.75;;;-7.53;98.96
74327;BME280;62745;51.060;13.786;2024-01-11T06:14:43;101631.78;;;-7.76;100.00
74327;BME280;62745;51.060;13.786;2024-01-11T06:17:08;101639.78;;;-7.84;100.00
74327;BME280;62745;51.060;13.786;2024-01-11T06:19:36;101658.69;;;-7.80;100.00
74327;BME280;62745;51.060;13.786;2024-01-11T06:22:01;101650.03;;;-7.48;100.00
74327;BME280;62745;51.060;13.786;2024-01-11T06:24:26;101646.28;;;-6.81;98.54
74327;BME280;62745;51.060;13.786;2024-01-11T06:26:52;101641.88;;;-7.07;95.92
74327;BME280;62745;51.060;13.786;2024-01-11T06:29:17;101653.50;;;-7.18;97.48
74327;BME280;62745;51.060;13.786;2024-01-11T06:31:42;101651.94;;;-7.25;96.82
74327;BME280;62745;51.060;13.786;2024-01-11T06:34:08;101643.41;;;-7.29;96.68
74327;BME280;62745;51.060;13.786;2024-01-11T06:36:33;101636.38;;;-6.96;98.05
74327;BME280;62745;51.060;13.786;2024-01-11T06:38:58;101640.09;;;-7.05;97.83
74327;BME280;62745;51.060;13.786;2024-01-11T06:41:24;101643.81;;;-7.13;96.75
74327;BME280;62745;51.060;13.786;2024-01-11T06:43:49;101634.13;;;-7.08;96.15
74327;BME280;62745;51.060;13.786;2024-01-11T06:46:19;101610.09;;;-7.44;97.01
74327;BME280;62745;51.060;13.786;2024-01-11T06:48:45;101614.41;;;-7.74;98.97
74327;BME280;62745;51.060;13.786;2024-01-11T06:51:14;101622.16;;;-7.73;100.00
74327;BME280;62745;51.060;13.786;2024-01-11T06:53:39;101600.47;;;-7.41;99.37
74327;BME280;62745;51.060;13.786;2024-01-11T06:56:14;101603.03;;;-7.69;100.00
74327;BME280;62745;51.060;13.786;2024-01-11T06:58:39;101604.09;;;-7.76;100.00
74327;BME280;62745;51.060;13.786;2024-01-11T07:01:04;101589.56;;;-7.81;100.00
74327;BME280;62745;51.060;13.786;2024-01-11T07:03:30;101579.41;;;-7.89;100.00
74327;BME280;62745;51.060;13.786;2024-01-11T07:05:55;101589.50;;;-7.80;100.00
74327;BME280;62745;51.060;13.786;2024-01-11T07:08:20;101583.44;;;-7.49;100.00
74327;BME280;62745;51.060;13.786;2024-01-11T07:10:46;101593.59;;;-7.42;100.00
74327;BME280;62745;51.060;13.786;2024-01-11T07:13:12;101587.59;;;-7.44;100.00
74327;BME280;62745;51.060;13.786;2024-01-11T07:15:40;101579.41;;;-7.30;100.00
74327;BME280;62745;51.060;13.786;2024-01-11T07:18:05;101580.56;;;-7.40;100.00
74327;BME280;62745;51.060;13.786;2024-01-11T07:20:30;101590.59;;;-7.28;100.00
74327;BME280;62745;51.060;13.786;2024-01-11T07:22:56;101575.31;;;-7.09;100.00
74327;BME280;62745;51.060;13.786;2024-01-11T07:25:21;101566.44;;;-7.02;100.00
74327;BME280;62745;51.060;13.786;2024-01-11T07:27:46;101577.31;;;-6.91;99.95
74327;BME280;62745;51.060;13.786;2024-01-11T07:30:12;101568.44;;;-6.57;98.50
74327;BME280;62745;51.060;13.786;2024-01-11T07:32:37;101561.75;;;-6.38;97.07
74327;BME280;62745;51.060;13.786;2024-01-11T07:35:03;101559.44;;;-6.47;96.42
74327;BME280;62745;51.060;13.786;2024-01-11T07:37:28;101573.25;;;-6.45;98.16
74327;BME280;62745;51.060;13.786;2024-01-11T07:39:53;101589.69;;;-6.45;98.34
74327;BME280;62745;51.060;13.786;2024-01-11T07:42:19;101578.28;;;-6.41;97.42
74327;BME280;62745;51.060;13.786;2024-01-11T07:44:44;101576.41;;;-6.35;96.65
74327;BME280;62745;51.060;13.786;2024-01-11T07:47:10;101581.28;;;-6.01;96.30
74327;BME280;62745;51.060;13.786;2024-01-11T07:49:35;101578.41;;;-5.94;97.04
74327;BME280;62745;51.060;13.786;2024-01-11T07:52:00;101570.75;;;-6.23;96.22
74327;BME280;62745;51.060;13.786;2024-01-11T07:54:25;101566.28;;;-6.45;97.93
74327;BME280;62745;51.060;13.786;2024-01-11T07:56:51;101558.81;;;-6.29;97.66
74327;BME280;62745;51.060;13.786;2024-01-11T07:59:16;101559.66;;;-6.53;99.02
74327;BME280;62745;51.060;13.786;2024-01-11T08:01:42;101580.84;;;-6.65;100.00
74327;BME280;62745;51.060;13.786;2024-01-11T08:04:07;101586.75;;;-6.34;100.00
74327;BME280;62745;51.060;13.786;2024-01-11T08:06:33;101591.81;;;-6.06;98.57
74327;BME280;62745;51.060;13.786;2024-01-11T08:08:59;101585.56;;;-6.25;99.90
74327;BME280;62745;51.060;13.786;2024-01-11T08:11:24;101601.88;;;-6.20;99.83
74327;BME280;62745;51.060;13.786;2024-01-11T08:13:49;101606.63;;;-5.83;98.45
74327;BME280;62745;51.060;13.786;2024-01-11T08:16:16;101596.22;;;-5.36;96.09
74327;BME280;62745;51.060;13.786;2024-01-11T08:18:42;101575.88;;;-5.27;94.68
74327;BME280;62745;51.060;13.786;2024-01-11T08:21:09;101578.47;;;-5.27;95.18
74327;BME280;62745;51.060;13.786;2024-01-11T08:23:36;101576.69;;;-5.48;95.58
74327;BME280;62745;51.060;13.786;2024-01-11T08:26:02;101595.41;;;-5.38;96.53
74327;BME280;62745;51.060;13.786;2024-01-11T08:28:28;101596.09;;;-5.33;98.20
74327;BME280;62745;51.060;13.786;2024-01-11T08:30:53;101590.38;;;-4.98;96.72
74327;BME280;62745;51.060;13.786;2024-01-11T08:33:19;101600.75;;;-4.96;96.40
74327;BME280;62745;51.060;13.786;2024-01-11T08:35:44;101602.31;;;-4.92;97.47
74327;BME280;62745;51.060;13.786;2024-01-11T08:38:09;101592.00;;;-4.95;97.75
74327;BME280;62745;51.060;13.786;2024-01-11T08:40:34;101597.28;;;-5.19;94.33
74327;BME280;62745;51.060;13.786;2024-01-11T08:43:00;101579.34;;;-4.82;94.62
74327;BME280;62745;51.060;13.786;2024-01-11T08:45:26;101580.66;;;-4.72;91.89
74327;BME280;62745;51.060;13.786;2024-01-11T08:47:51;101579.72;;;-4.70;89.84
74327;BME280;62745;51.060;13.786;2024-01-11T08:50:16;101581.31;;;-4.45;90.58
74327;BME280;62745;51.060;13.786;2024-01-11T08:52:42;101584.31;;;-4.34;87.44
74327;BME280;62745;51.060;13.786;2024-01-11T08:55:08;101580.28;;;-4.01;91.51
74327;BME280;62745;51.060;13.786;2024-01-11T08:57:33;101557.00;;;-4.46;87.81
74327;BME280;62745;51.060;13.786;2024-01-11T09:00:02;101575.97;;;-4.02;87.48
74327;BME280;62745;51.060;13.786;2024-01-11T09:02:27;101574.31;;;-4.04;89.93
74327;BME280;62745;51.060;13.786;2024-01-11T09:04:52;101562.88;;;-4.00;88.79
74327;BME280;62745;51.060;13.786;2024-01-11T09:07:17;101579.03;;;-4.12;87.48
74327;BME280;62745;51.060;13.786;2024-01-11T09:09:43;101579.09;;;-3.94;86.76
74327;BME280;62745;51.060;13.786;2024-01-11T09:12:09;101587.13;;;-3.98;87.12
74327;BME280;62745;51.060;13.786;2024-01-11T09:14:34;101584.41;;;-4.15;86.40
74327;BME280;62745;51.060;13.786;2024-01-11T09:16:59;101589.41;;;-4.31;88.87
74327;BME280;62745;51.060;13.786;2024-01-11T09:19:24;101580.03;;;-4.15;89.75
74327;BME280;62745;51.060;13.786;2024-01-11T09:21:50;101578.84;;;-4.08;89.06
74327;BME280;62745;51.060;13.786;2024-01-11T09:24:15;101581.97;;;-3.42;88.15
74327;BME280;62745;51.060;13.786;2024-01-11T09:26:41;101587.50;;;-3.29;85.80
74327;BME280;62745;51.060;13.786;2024-01-11T09:29:06;101587.50;;;-3.29;85.41
74327;BME280;62745;51.060;13.786;2024-01-11T09:31:31;101597.31;;;-3.34;86.55
74327;BME280;62745;51.060;13.786;2024-01-11T09:33:57;101581.63;;;-3.15;86.90
74327;BME280;62745;51.060;13.786;2024-01-11T09:36:22;101574.78;;;-2.99;85.22
74327;BME280;62745;51.060;13.786;2024-01-11T09:38:47;101583.22;;;-2.94;86.39
74327;BME280;62745;51.060;13.786;2024-01-11T09:41:13;101583.81;;;-2.70;84.91
74327;BME280;62745;51.060;13.786;2024-01-11T09:43:41;101597.31;;;-2.26;84.81
74327;BME280;62745;51.060;13.786;2024-01-11T09:46:07;101599.56;;;-2.01;82.40
74327;BME280;62745;51.060;13.786;2024-01-11T09:48:36;101609.97;;;-2.34;80.07
74327;BME280;62745;51.060;13.786;2024-01-11T09:51:03;101606.31;;;-2.49;81.32
74327;BME280;62745;51.060;13.786;2024-01-11T09:53:31;101598.84;;;-2.22;83.05
74327;BME280;62745;51.060;13.786;2024-01-11T09:55:58;101588.00;;;-2.49;82.03
74327;BME280;62745;51.060;13.786;2024-01-11T09:58:23;101594.53;;;-2.40;85.07
74327;BME280;62745;51.060;13.786;2024-01-11T10:00:54;101573.16;;;-2.48;85.12
74327;BME280;62745;51.060;13.786;2024-01-11T10:03:20;101578.31;;;-2.29;84.80
74327;BME280;62745;51.060;13.786;2024-01-11T10:05:46;101573.53;;;-2.21;83.27
74327;BME280;62745;51.060;13.786;2024-01-11T10:08:14;101581.53;;;-2.24;82.43
74327;BME280;62745;51.060;13.786;2024-01-11T10:10:39;101571.00;;;-2.40;85.08
74327;BME280;62745;51.060;13.786;2024-01-11T10:13:05;101570.44;;;-1.95;82.57
74327;BME280;62745;51.060;13.786;2024-01-11T10:15:30;101562.28;;;-2.06;81.21
74327;BME280;62745;51.060;13.786;2024-01-11T10:17:58;101568.53;;;-2.08;82.41
74327;BME280;62745;51.060;13.786;2024-01-11T10:20:24;101554.69;;;-1.77;82.21
74327;BME280;62745;51.060;13.786;2024-01-11T10:22:50;101556.75;;;-1.67;79.88
74327;BME280;62745;51.060;13.786;2024-01-11T10:25:17;101556.25;;;-1.91;81.25
74327;BME280;62745;51.060;13.786;2024-01-11T10:27:45;101548.97;;;-1.86;82.64
74327;BME280;62745;51.060;13.786;2024-01-11T10:30:11;101543.47;;;-1.64;81.96
74327;BME280;62745;51.060;13.786;2024-01-11T10:32:46;101534.75;;;-1.80;82.82
74327;BME280;62745;51.060;13.786;2024-01-11T10:35:12;101535.41;;;-2.09;84.15
74327;BME280;62745;51.060;13.786;2024-01-11T10:37:38;101530.84;;;-1.73;81.63
74327;BME280;62745;51.060;13.786;2024-01-11T10:40:07;101530.78;;;-2.04;84.12
74327;BME280;62745;51.060;13.786;2024-01-11T10:42:44;101531.41;;;-1.50;83.26
74327;BME280;62745;51.060;13.786;2024-01-11T10:45:14;101532.25;;;-1.34;80.74
74327;BME280;62745;51.060;13.786;2024-01-11T10:47:47;101517.19;;;-1.15;79.66
74327;BME280;62745;51.060;13.786;2024-01-11T10:50:15;101514.03;;;-0.90;79.93
74327;BME280;62745;51.060;13.786;2024-01-11T10:52:50;101511.94;;;-0.99;78.42
74327;BME280;62745;51.060;13.786;2024-01-11T10:55:20;101513.38;;;-0.64;78.25
74327;BME280;62745;51.060;13.786;2024-01-11T10:57:47;101516.56;;;-0.88;80.90
74327;BME280;62745;51.060;13.786;2024-01-11T11:00:13;101513.66;;;-0.54;77.61
74327;BME280;62745;51.060;13.786;2024-01-11T11:02:40;101497.97;;;-0.40;75.66
74327;BME280;62745;51.060;13.786;2024-01-11T11:05:07;101502.25;;;-0.53;76.94
74327;BME280;62745;51.060;13.786;2024-01-11T11:07:35;101488.22;;;-0.38;75.68
74327;BME280;62745;51.060;13.786;2024-01-11T11:10:02;101487.97;;;-0.63;77.49
74327;BME280;62745;51.060;13.786;2024-01-11T11:12:31;101480.16;;;-0.35;75.15
74327;BME280;62745;51.060;13.786;2024-01-11T11:14:58;101479.56;;;-0.54;77.44
74327;BME280;62745;51.060;13.786;2024-01-11T11:17:24;101480.72;;;-1.19;77.74
74327;BME280;62745;51.060;13.786;2024-01-11T11:19:50;101470.06;;;-1.01;79.04
74327;BME280;62745;51.060;13.786;2024-01-11T11:22:17;101470.28;;;-0.59;76.95
74327;BME280;62745;51.060;13.786;2024-01-11T11:24:44;101465.69;;;-0.56;74.91
74327;BME280;62745;51.060;13.786;2024-01-11T11:27:13;101468.91;;;0.06;73.66
74327;BME280;62745;51.060;13.786;2024-01-11T11:29:40;101464.22;;;-0.03;73.03
74327;BME280;62745;51.060;13.786;2024-01-11T11:32:06;101465.69;;;0.29;75.74
74327;BME280;62745;51.060;13.786;2024-01-11T11:34:43;101455.91;;;0.46;70.84
74327;BME280;62745;51.060;13.786;2024-01-11T11:37:12;101444.72;;;0.56;69.62
74327;BME280;62745;51.060;13.786;2024-01-11T11:39:38;101442.41;;;0.92;68.68
74327;BME280;62745;51.060;13.786;2024-01-11T11:42:06;101439.00;;;1.04;67.86
74327;BME280;62745;51.060;13.786;2024-01-11T11:44:33;101443.03;;;1.47;65.55
74327;BME280;62745;51.060;13.786;2024-01-11T11:47:32;101448.94;;;1.38;65.16
74327;BME280;62745;51.060;13.786;2024-01-11T11:50:04;101445.25;;;0.88;67.28
74327;BME280;62745;51.060;13.786;2024-01-11T11:52:34;101443.41;;;1.16;68.86
74327;BME280;62745;51.060;13.786;2024-01-11T11:55:01;101436.19;;;1.45;64.52
74327;BME280;62745;51.060;13.786;2024-01-11T11:57:27;101448.09;;;0.98;66.11
74327;BME280;62745;51.060;13.786;2024-01-11T11:59:56;101437.75;;;0.82;67.59
74327;BME280;62745;51.060;13.786;2024-01-11T12:02:23;101433.84;;;1.02;65.97
74327;BME280;62745;51.060;13.786;2024-01-11T12:04:50;101435.53;;;1.16;65.73
74327;BME280;62745;51.060;13.786;2024-01-11T12:07:15;101430.81;;;1.21;65.54
74327;BME280;62745;51.060;13.786;2024-01-11T12:09:42;101427.34;;;0.81;65.24
74327;BME280;62745;51.060;13.786;2024-01-11T12:12:07;101432.31;;;0.85;65.31
74327;BME280;62745;51.060;13.786;2024-01-11T12:14:34;101430.88;;;1.07;65.15
74327;BME280;62745;51.060;13.786;2024-01-11T12:16:59;101436.91;;;1.34;63.81
74327;BME280;62745;51.060;13.786;2024-01-11T12:19:25;101428.84;;;0.98;63.95
74327;BME280;62745;51.060;13.786;2024-01-11T12:21:51;101429.22;;;0.79;62.01
74327;BME280;62745;51.060;13.786;2024-01-11T12:24:16;101436.88;;;0.69;60.70
74327;BME280;62745;51.060;13.786;2024-01-11T12:26:42;101422.75;;;0.97;62.84
74327;BME280;62745;51.060;13.786;2024-01-11T12:29:08;101427.09;;;1.11;62.46
74327;BME280;62745;51.060;13.786;2024-01-11T12:31:34;101418.00;;;0.89;60.13